Time;durP1;ratioP1;P1;durP2;ratioP2;P2;SDS_P1;SDS_P2;PMS_P1;PMS_P2;Temp;Humidity;BMP_temperature;BMP_pressure;BME280_temperature;BME280_humidity;BME280_pressure;Samples;Min_cycle;Max_cycle;Signal;HPM_P1;HPM_P2
2023/10/24 00:01:31;;;;;;;6.37;3.30;;;11.10;99.90;;;;;;5031697;28;20191;-65
2023/10/24 00:03:58;;;;;;;3.93;2.50;;;11.10;99.90;;;;;;5031698;28;20276;-65
2023/10/24 00:06:25;;;;;;;4.67;2.97;;;11.10;99.90;;;;;;5029981;28;20561;-65
2023/10/24 00:08:52;;;;;;;3.93;2.90;;;11.10;99.90;;;;;;5009821;28;21000;-65
2023/10/24 00:11:19;;;;;;;5.13;3.27;;;11.10;99.90;;;;;;5032077;28;20686;-65
2023/10/24 00:13:46;;;;;;;6.47;3.40;;;11.10;99.90;;;;;;5024860;28;20202;-65
2023/10/24 00:16:13;;;;;;;5.23;3.20;;;11.00;99.90;;;;;;5030437;28;20682;-65
2023/10/24 00:18:41;;;;;;;6.40;3.73;;;11.00;99.90;;;;;;5031699;28;20195;-64
2023/10/24 00:21:09;;;;;;;5.70;3.10;;;11.00;99.90;;;;;;5025008;28;20205;-65
2023/10/24 00:23:36;;;;;;;3.70;2.87;;;11.00;99.90;;;;;;5029343;28;20221;-65
2023/10/24 00:26:03;;;;;;;4.53;3.13;;;10.90;99.90;;;;;;5030386;28;20256;-64
2023/10/24 00:28:30;;;;;;;3.10;2.80;;;11.00;99.90;;;;;;5025653;28;20776;-65
2023/10/24 00:30:57;;;;;;;5.00;2.93;;;11.00;99.90;;;;;;5012708;28;20202;-64
2023/10/24 00:33:24;;;;;;;3.43;2.47;;;11.10;99.90;;;;;;5032024;28;20227;-64
2023/10/24 00:35:53;;;;;;;3.13;2.53;;;11.10;99.90;;;;;;5030491;28;20215;-65
2023/10/24 00:38:20;;;;;;;2.83;2.37;;;11.20;99.90;;;;;;5031118;28;20268;-65
2023/10/24 00:40:47;;;;;;;3.90;2.77;;;11.20;99.90;;;;;;5033009;28;20272;-65
2023/10/24 00:43:14;;;;;;;2.20;2.00;;;11.20;99.90;;;;;;5024678;28;20211;-64
2023/10/24 00:45:43;;;;;;;2.50;2.20;;;11.20;99.90;;;;;;5011277;28;20191;-65
2023/10/24 00:48:10;;;;;;;2.37;2.00;;;11.30;99.90;;;;;;5030382;28;20286;-65
2023/10/24 00:50:38;;;;;;;4.53;2.77;;;11.30;99.90;;;;;;5026893;28;20202;-65
2023/10/24 00:53:06;;;;;;;3.60;2.67;;;11.30;99.90;;;;;;5027696;28;20273;-65
2023/10/24 00:55:37;;;;;;;4.40;3.00;;;11.20;99.90;;;;;;5014126;28;20710;-65
2023/10/24 00:58:05;;;;;;;3.67;2.97;;;11.20;99.90;;;;;;5022503;28;20190;-65
2023/10/24 01:00:34;;;;;;;4.20;2.90;;;11.20;99.90;;;;;;5030929;28;20249;-64
2023/10/24 01:03:03;;;;;;;4.87;3.00;;;11.20;99.90;;;;;;5030615;28;20688;-65
2023/10/24 01:05:31;;;;;;;3.87;2.87;;;11.20;99.90;;;;;;5029642;28;20659;-64
2023/10/24 01:07:58;;;;;;;4.63;3.03;;;11.20;99.90;;;;;;5030375;28;20533;-64
2023/10/24 01:10:27;;;;;;;3.00;2.70;;;11.20;99.90;;;;;;5031682;28;20277;-65
2023/10/24 01:12:54;;;;;;;6.07;3.13;;;11.20;99.90;;;;;;5028416;28;20203;-65
2023/10/24 01:15:22;;;;;;;3.30;2.40;;;11.20;99.90;;;;;;5013357;28;20357;-64
2023/10/24 01:17:50;;;;;;;4.07;2.63;;;11.30;99.90;;;;;;5009833;28;20245;-64
2023/10/24 01:20:18;;;;;;;4.80;3.17;;;11.20;99.90;;;;;;5024396;28;20226;-65
2023/10/24 01:22:48;;;;;;;7.10;3.80;;;11.30;99.90;;;;;;5029861;28;20686;-65
2023/10/24 01:25:16;;;;;;;5.83;3.90;;;11.30;99.90;;;;;;5031412;28;20217;-65
2023/10/24 01:27:44;;;;;;;7.30;4.30;;;11.20;99.90;;;;;;5027594;28;20609;-66
2023/10/24 01:30:14;;;;;;;7.73;4.23;;;11.10;99.90;;;;;;5011482;28;20229;-65
2023/10/24 01:32:41;;;;;;;8.47;4.70;;;11.10;99.90;;;;;;5030924;28;20202;-65
2023/10/24 01:35:09;;;;;;;6.20;3.93;;;11.10;99.90;;;;;;5009957;28;20222;-65
2023/10/24 01:37:36;;;;;;;9.30;4.90;;;11.00;99.90;;;;;;5012428;28;20231;-65
2023/10/24 01:40:06;;;;;;;7.07;4.10;;;11.00;99.90;;;;;;5025521;28;20207;-64
2023/10/24 01:42:33;;;;;;;6.90;4.23;;;11.00;99.90;;;;;;5026664;28;20191;-64
2023/10/24 01:45:00;;;;;;;4.70;3.50;;;11.00;99.90;;;;;;5030603;28;20227;-65
2023/10/24 01:47:28;;;;;;;3.87;3.30;;;11.00;99.90;;;;;;5012878;28;20207;-64
2023/10/24 01:49:57;;;;;;;5.03;3.57;;;10.90;99.90;;;;;;5027416;28;20600;-64
2023/10/24 01:52:24;;;;;;;5.83;3.63;;;11.00;99.90;;;;;;5028530;28;20202;-65
2023/10/24 01:54:52;;;;;;;3.97;2.83;;;10.90;99.90;;;;;;5029366;28;20237;-65
2023/10/24 01:57:20;;;;;;;3.90;2.90;;;11.00;99.90;;;;;;5006525;28;20781;-66
2023/10/24 01:59:47;;;;;;;4.57;2.77;;;11.00;99.90;;;;;;5028755;28;20743;-65
2023/10/24 02:02:15;;;;;;;4.03;2.87;;;11.00;99.90;;;;;;5030363;28;20293;-65
2023/10/24 02:04:43;;;;;;;3.70;3.03;;;11.00;99.90;;;;;;5004064;28;20250;-65
2023/10/24 02:07:10;;;;;;;3.63;2.83;;;11.00;99.90;;;;;;5030330;28;20214;-65
2023/10/24 02:09:37;;;;;;;4.47;3.27;;;11.00;99.90;;;;;;5012105;28;20280;-65
2023/10/24 02:12:04;;;;;;;6.17;3.73;;;10.90;99.90;;;;;;5006051;28;20198;-64
2023/10/24 02:14:33;;;;;;;5.27;3.67;;;10.90;99.90;;;;;;5023880;28;20717;-64
2023/10/24 02:17:00;;;;;;;6.60;3.93;;;10.80;99.90;;;;;;5020067;28;20202;-65
2023/10/24 02:19:27;;;;;;;6.70;3.77;;;10.80;99.90;;;;;;5008013;28;20203;-65
2023/10/24 02:21:54;;;;;;;6.23;3.47;;;10.80;99.90;;;;;;5012144;28;20206;-64
2023/10/24 02:24:21;;;;;;;7.13;4.13;;;10.70;99.90;;;;;;5011441;28;20234;-66
2023/10/24 02:26:49;;;;;;;5.87;3.63;;;10.70;99.90;;;;;;5007431;28;20203;-64
2023/10/24 02:29:17;;;;;;;4.90;3.37;;;10.70;99.90;;;;;;5023390;28;20197;-64
2023/10/24 02:31:46;;;;;;;4.93;3.33;;;10.80;99.90;;;;;;5021332;28;20247;-65
2023/10/24 02:34:13;;;;;;;5.37;3.43;;;10.80;99.90;;;;;;5008004;28;20210;-64
2023/10/24 02:36:40;;;;;;;3.60;2.93;;;10.80;99.90;;;;;;5027798;28;20198;-64
2023/10/24 02:39:07;;;;;;;5.67;2.93;;;10.80;99.90;;;;;;5027704;28;20234;-64
2023/10/24 02:41:35;;;;;;;3.97;2.83;;;10.80;99.90;;;;;;5009073;28;20563;-64
2023/10/24 02:44:02;;;;;;;4.07;2.70;;;10.80;99.90;;;;;;5025199;28;20286;-65
2023/10/24 02:46:29;;;;;;;3.70;3.00;;;10.80;99.90;;;;;;5029033;28;20327;-65
2023/10/24 02:49:04;;;;;;;3.93;3.00;;;10.80;99.90;;;;;;5006995;28;20269;-65
2023/10/24 02:51:31;;;;;;;4.30;3.03;;;10.80;99.90;;;;;;5011327;28;20208;-65
2023/10/24 02:53:58;;;;;;;4.43;3.30;;;10.90;99.90;;;;;;5029368;28;20205;-65
2023/10/24 02:56:26;;;;;;;4.60;2.80;;;10.80;99.90;;;;;;5026979;28;20605;-65
2023/10/24 02:58:53;;;;;;;4.37;3.00;;;10.80;99.90;;;;;;5009813;28;20209;-65
2023/10/24 03:01:23;;;;;;;4.30;3.13;;;10.80;99.90;;;;;;5012147;28;20210;-65
2023/10/24 03:03:53;;;;;;;3.43;2.90;;;10.80;99.90;;;;;;5022496;28;20254;-66
2023/10/24 03:06:22;;;;;;;3.50;2.70;;;10.80;99.90;;;;;;5029931;28;20325;-65
2023/10/24 03:08:50;;;;;;;3.90;2.60;;;10.80;99.90;;;;;;5015035;28;20276;-65
2023/10/24 03:11:23;;;;;;;4.07;2.87;;;10.80;99.90;;;;;;5026070;28;20200;-65
2023/10/24 03:13:52;;;;;;;2.37;2.17;;;10.80;99.90;;;;;;5030559;28;20221;-65
2023/10/24 03:16:21;;;;;;;3.63;3.03;;;10.70;99.90;;;;;;5033049;28;20332;-63
2023/10/24 03:18:51;;;;;;;3.20;2.80;;;10.70;99.90;;;;;;5011002;28;20222;-64
2023/10/24 03:21:19;;;;;;;3.70;2.80;;;10.60;99.90;;;;;;5005608;28;20203;-64
2023/10/24 03:23:48;;;;;;;3.20;2.90;;;10.60;99.90;;;;;;5032288;28;20229;-64
2023/10/24 03:26:15;;;;;;;4.07;3.07;;;10.60;99.90;;;;;;5012935;28;20198;-64
2023/10/24 03:28:42;;;;;;;4.67;3.00;;;10.60;99.90;;;;;;5030959;28;20288;-64
2023/10/24 03:31:09;;;;;;;5.03;3.43;;;10.50;99.90;;;;;;5032895;28;20208;-65
2023/10/24 03:33:38;;;;;;;3.80;3.40;;;10.50;99.90;;;;;;5029675;28;20642;-64
2023/10/24 03:36:11;;;;;;;3.30;2.80;;;10.50;99.90;;;;;;5015294;28;20747;-64
2023/10/24 03:38:38;;;;;;;3.83;3.00;;;10.50;99.90;;;;;;5031613;28;20202;-64
2023/10/24 03:41:07;;;;;;;5.03;3.60;;;10.50;99.90;;;;;;5031075;28;20644;-65
2023/10/24 03:43:35;;;;;;;4.60;3.07;;;10.50;99.90;;;;;;5030851;28;20249;-65
2023/10/24 03:46:06;;;;;;;5.03;3.47;;;10.50;99.90;;;;;;5029871;28;20281;-65
2023/10/24 03:48:33;;;;;;;3.77;2.57;;;10.50;99.90;;;;;;5026825;28;20202;-65
2023/10/24 03:51:01;;;;;;;4.87;3.17;;;10.50;99.90;;;;;;5014915;28;20215;-65
2023/10/24 03:53:28;;;;;;;5.37;3.47;;;10.50;99.90;;;;;;5032480;28;20220;-64
2023/10/24 03:55:59;;;;;;;4.53;3.13;;;10.60;99.90;;;;;;5029288;28;20210;-65
2023/10/24 03:58:29;;;;;;;4.47;2.97;;;10.50;99.90;;;;;;5012911;28;20293;-65
2023/10/24 04:00:56;;;;;;;3.63;3.10;;;10.50;99.90;;;;;;5032156;28;20201;-65
2023/10/24 04:03:23;;;;;;;4.50;3.37;;;10.50;99.90;;;;;;5024552;28;20234;-65
2023/10/24 04:05:50;;;;;;;5.60;3.00;;;10.50;99.90;;;;;;5037573;28;20197;-65
2023/10/24 04:08:17;;;;;;;6.43;3.53;;;10.50;99.90;;;;;;5031625;28;20548;-64
2023/10/24 04:10:44;;;;;;;3.20;2.90;;;10.40;99.90;;;;;;5028902;28;20660;-64
2023/10/24 04:13:11;;;;;;;6.50;3.17;;;10.40;99.90;;;;;;5030107;28;20221;-64
2023/10/24 04:15:40;;;;;;;4.93;3.53;;;10.40;99.90;;;;;;5014411;28;20312;-64
2023/10/24 04:18:07;;;;;;;5.60;3.30;;;10.30;99.90;;;;;;5002570;28;20263;-64
2023/10/24 04:20:35;;;;;;;5.93;3.57;;;10.30;99.90;;;;;;5015870;28;20210;-64
2023/10/24 04:23:03;;;;;;;3.63;3.23;;;10.30;99.90;;;;;;5025324;28;20568;-65
2023/10/24 04:25:30;;;;;;;4.17;3.30;;;10.30;99.90;;;;;;5036305;28;20225;-64
2023/10/24 04:27:58;;;;;;;3.17;2.90;;;10.30;99.90;;;;;;5010265;28;20217;-65
2023/10/24 04:30:26;;;;;;;6.23;3.13;;;10.30;99.90;;;;;;5028902;28;20203;-64
2023/10/24 04:32:55;;;;;;;5.27;3.73;;;10.30;99.90;;;;;;5031616;28;20194;-65
2023/10/24 04:35:22;;;;;;;4.47;2.90;;;10.30;99.90;;;;;;5010729;28;20685;-65
2023/10/24 04:37:49;;;;;;;4.53;3.03;;;10.30;99.90;;;;;;5027056;28;20190;-65
2023/10/24 04:40:17;;;;;;;2.63;2.43;;;10.30;99.90;;;;;;5029695;28;20203;-65
2023/10/24 04:42:45;;;;;;;3.60;2.70;;;10.30;99.90;;;;;;5029123;28;20264;-65
2023/10/24 04:45:12;;;;;;;2.70;2.00;;;10.40;99.90;;;;;;5026933;28;20201;-65
2023/10/24 04:47:39;;;;;;;2.33;2.13;;;10.40;99.90;;;;;;5029907;28;20207;-65
2023/10/24 04:50:08;;;;;;;2.73;1.93;;;10.50;99.90;;;;;;5011617;28;20261;-65
2023/10/24 04:52:36;;;;;;;1.73;1.63;;;10.50;99.90;;;;;;5027122;28;20202;-65
2023/10/24 04:55:04;;;;;;;1.47;1.37;;;10.60;99.90;;;;;;5031386;28;20253;-65
2023/10/24 04:57:31;;;;;;;2.67;1.60;;;10.70;99.90;;;;;;5022114;28;20190;-64
2023/10/24 04:59:59;;;;;;;1.70;1.57;;;10.70;99.90;;;;;;5027592;28;20652;-64
2023/10/24 05:02:26;;;;;;;1.80;1.30;;;10.70;99.90;;;;;;5013107;28;20202;-64
2023/10/24 05:04:53;;;;;;;1.63;1.47;;;10.70;99.90;;;;;;5024019;28;20230;-65
2023/10/24 05:07:21;;;;;;;1.50;1.40;;;10.80;99.90;;;;;;5028350;28;20264;-65
2023/10/24 05:09:50;;;;;;;1.60;1.50;;;10.80;99.90;;;;;;5013194;28;20268;-64
2023/10/24 05:12:17;;;;;;;1.93;1.50;;;10.80;99.90;;;;;;5029448;28;20218;-65
2023/10/24 05:14:44;;;;;;;1.77;1.67;;;10.80;99.90;;;;;;5027339;28;20264;-65
2023/10/24 05:17:11;;;;;;;2.20;1.47;;;10.70;99.90;;;;;;5030988;28;20268;-65
2023/10/24 05:19:39;;;;;;;2.60;1.90;;;10.70;99.90;;;;;;5011993;28;20206;-65
2023/10/24 05:22:10;;;;;;;2.90;2.00;;;10.70;99.90;;;;;;5005401;28;20202;-65
2023/10/24 05:24:39;;;;;;;3.00;1.90;;;10.60;99.90;;;;;;5028649;28;20281;-65
2023/10/24 05:27:06;;;;;;;2.90;2.03;;;10.70;99.90;;;;;;5010819;28;20190;-64
2023/10/24 05:29:33;;;;;;;2.77;1.80;;;10.60;99.90;;;;;;5025269;28;20654;-66
2023/10/24 05:32:01;;;;;;;2.07;1.80;;;10.60;99.90;;;;;;5029700;28;20206;-65
2023/10/24 05:34:28;;;;;;;2.70;1.67;;;10.60;99.90;;;;;;5026668;28;22119;-65
2023/10/24 05:36:55;;;;;;;1.60;1.50;;;10.60;99.90;;;;;;5028672;28;20253;-65
2023/10/24 05:39:24;;;;;;;2.20;1.87;;;10.60;99.90;;;;;;5007962;28;20204;-65
2023/10/24 05:41:52;;;;;;;1.73;1.63;;;10.60;99.90;;;;;;5030686;28;20203;-65
2023/10/24 05:44:19;;;;;;;3.30;1.77;;;10.60;99.90;;;;;;5018315;28;20272;-65
2023/10/24 05:46:47;;;;;;;2.00;1.57;;;10.60;99.90;;;;;;5030702;28;20186;-65
2023/10/24 05:49:14;;;;;;;2.30;1.43;;;10.60;99.90;;;;;;5029984;28;20264;-65
2023/10/24 05:51:41;;;;;;;2.07;1.87;;;10.60;99.90;;;;;;5005158;28;20202;-64
2023/10/24 05:54:08;;;;;;;2.47;1.67;;;10.60;99.90;;;;;;5028330;28;20213;-65
2023/10/24 05:56:35;;;;;;;3.40;1.80;;;10.60;99.90;;;;;;5025340;28;20225;-65
2023/10/24 05:59:04;;;;;;;2.30;2.10;;;10.70;99.90;;;;;;5003164;28;20727;-65
2023/10/24 06:01:31;;;;;;;3.27;2.27;;;10.70;99.90;;;;;;5025833;28;20198;-65
2023/10/24 06:03:58;;;;;;;3.43;2.27;;;10.70;99.90;;;;;;5026699;28;20238;-65
2023/10/24 06:06:25;;;;;;;3.33;2.20;;;10.70;99.90;;;;;;5024318;28;20364;-65
2023/10/24 06:08:55;;;;;;;4.03;2.30;;;10.70;99.90;;;;;;5029117;28;20198;-65
2023/10/24 06:11:22;;;;;;;3.57;2.50;;;10.70;99.90;;;;;;5030462;28;20194;-65
2023/10/24 06:13:49;;;;;;;3.97;3.10;;;10.70;99.90;;;;;;5024713;28;20203;-65
2023/10/24 06:16:18;;;;;;;3.93;2.80;;;10.60;99.90;;;;;;5030328;28;20230;-64
2023/10/24 06:18:45;;;;;;;3.50;2.47;;;10.60;99.90;;;;;;5029998;28;20592;-65
2023/10/24 06:21:13;;;;;;;3.50;2.63;;;10.60;99.90;;;;;;5026314;28;20207;-65
2023/10/24 06:23:42;;;;;;;2.93;2.40;;;10.60;99.90;;;;;;5029463;28;20209;-65
2023/10/24 06:26:13;;;;;;;4.33;2.50;;;10.70;99.90;;;;;;5030212;28;20547;-64
2023/10/24 06:28:41;;;;;;;7.63;2.90;;;10.70;99.90;;;;;;5025772;28;20197;-64
2023/10/24 06:31:08;;;;;;;3.07;2.30;;;10.70;99.90;;;;;;5026873;28;20289;-64
2023/10/24 06:33:37;;;;;;;4.47;3.03;;;10.70;99.90;;;;;;5028782;28;20232;-64
2023/10/24 06:36:05;;;;;;;3.53;2.73;;;10.80;99.90;;;;;;5029144;28;20263;-65
2023/10/24 06:38:32;;;;;;;3.83;2.77;;;10.80;99.90;;;;;;5028513;28;20201;-65
2023/10/24 06:40:59;;;;;;;7.37;3.70;;;10.80;99.90;;;;;;5027622;28;20674;-66
2023/10/24 06:43:27;;;;;;;6.37;3.87;;;10.80;99.90;;;;;;5032579;28;20260;-65
2023/10/24 06:45:54;;;;;;;9.93;5.03;;;10.80;99.90;;;;;;5009173;28;20198;-65
2023/10/24 06:48:21;;;;;;;12.67;5.77;;;10.80;99.90;;;;;;5029197;28;20216;-65
2023/10/24 06:50:50;;;;;;;15.60;6.80;;;10.80;99.90;;;;;;5026679;28;20197;-65
2023/10/24 06:53:17;;;;;;;14.60;7.53;;;10.80;99.90;;;;;;5015177;28;20194;-65
2023/10/24 06:55:44;;;;;;;18.23;8.67;;;10.70;99.90;;;;;;5029941;28;20252;-65
2023/10/24 06:58:11;;;;;;;16.70;8.20;;;10.70;99.90;;;;;;5024422;28;20289;-64
2023/10/24 07:00:38;;;;;;;13.03;6.80;;;10.70;99.90;;;;;;5028557;28;20276;-65
2023/10/24 07:03:05;;;;;;;11.97;6.67;;;10.70;99.90;;;;;;5029220;28;20198;-64
2023/10/24 07:05:32;;;;;;;14.60;6.63;;;10.70;99.90;;;;;;5007462;28;20198;-65
2023/10/24 07:08:01;;;;;;;13.87;6.40;;;10.70;99.90;;;;;;5028421;28;20977;-64
2023/10/24 07:10:33;;;;;;;11.60;6.30;;;10.80;99.90;;;;;;5029796;28;20201;-65
2023/10/24 07:13:00;;;;;;;10.60;5.87;;;10.80;99.90;;;;;;5022751;28;20260;-65
2023/10/24 07:15:29;;;;;;;9.47;5.53;;;10.80;99.90;;;;;;5028878;28;20240;-65
2023/10/24 07:17:56;;;;;;;11.47;6.10;;;10.80;99.90;;;;;;5025414;28;20206;-65
2023/10/24 07:20:23;;;;;;;10.23;5.80;;;10.80;99.90;;;;;;5025476;28;20205;-65
2023/10/24 07:22:50;;;;;;;11.63;6.23;;;10.90;99.90;;;;;;5011044;28;20206;-65
2023/10/24 07:25:18;;;;;;;10.77;6.40;;;10.90;99.90;;;;;;5019058;28;20264;-64
2023/10/24 07:27:46;;;;;;;10.67;5.87;;;10.90;99.90;;;;;;5026482;28;20276;-64
2023/10/24 07:30:13;;;;;;;11.30;5.80;;;11.00;99.90;;;;;;5011241;28;20629;-64
2023/10/24 07:32:40;;;;;;;11.40;5.60;;;11.00;99.90;;;;;;5028403;28;20292;-65
2023/10/24 07:35:08;;;;;;;9.13;5.40;;;11.10;99.90;;;;;;5025470;28;20202;-65
2023/10/24 07:37:36;;;;;;;10.60;5.03;;;11.10;99.90;;;;;;5024808;28;20207;-65
2023/10/24 07:40:03;;;;;;;8.20;4.90;;;11.10;99.90;;;;;;5029144;28;20279;-65
2023/10/24 07:42:32;;;;;;;9.00;5.37;;;11.10;99.90;;;;;;5021546;28;20221;-63
2023/10/24 07:44:59;;;;;;;6.53;4.43;;;11.10;99.90;;;;;;5010908;28;20205;-64
2023/10/24 07:47:27;;;;;;;8.23;4.97;;;11.10;99.90;;;;;;5032917;28;20198;-64
2023/10/24 07:49:55;;;;;;;7.10;4.50;;;11.10;99.90;;;;;;5006916;28;20672;-65
2023/10/24 07:52:22;;;;;;;6.30;4.10;;;11.10;99.90;;;;;;5004856;28;20751;-65
2023/10/24 07:54:50;;;;;;;5.40;3.90;;;11.20;99.90;;;;;;5019777;28;20698;-64
2023/10/24 07:57:17;;;;;;;6.40;3.37;;;11.20;99.90;;;;;;5020808;28;20211;-65
2023/10/24 07:59:45;;;;;;;9.63;3.90;;;11.30;99.90;;;;;;5026472;28;20203;-65
2023/10/24 08:02:14;;;;;;;4.73;3.60;;;11.30;99.90;;;;;;5030112;28;20746;-65
2023/10/24 08:04:41;;;;;;;5.70;3.50;;;11.30;99.90;;;;;;5021978;28;20230;-65
2023/10/24 08:07:08;;;;;;;7.17;3.63;;;11.30;99.90;;;;;;5030582;28;20198;-65
2023/10/24 08:09:36;;;;;;;12.10;4.17;;;11.40;99.90;;;;;;5029468;28;20201;-65
2023/10/24 08:12:03;;;;;;;6.13;3.70;;;11.40;99.90;;;;;;5024639;28;20230;-65
2023/10/24 08:14:32;;;;;;;5.10;3.70;;;11.50;99.90;;;;;;5023461;28;20198;-65
2023/10/24 08:17:00;;;;;;;4.80;3.33;;;11.50;99.90;;;;;;5030236;28;20686;-65
2023/10/24 08:19:27;;;;;;;4.47;3.10;;;11.60;99.90;;;;;;5025051;28;20202;-65
2023/10/24 08:21:54;;;;;;;4.67;3.60;;;11.60;99.90;;;;;;5029512;28;20277;-64
2023/10/24 08:24:24;;;;;;;4.37;3.40;;;11.60;99.90;;;;;;5029820;28;20313;-65
2023/10/24 08:26:52;;;;;;;3.23;2.93;;;11.70;99.90;;;;;;5020421;28;20183;-65
2023/10/24 08:29:21;;;;;;;3.57;3.13;;;11.80;99.90;;;;;;5025226;28;20317;-65
2023/10/24 08:31:49;;;;;;;5.83;3.30;;;11.80;99.90;;;;;;5031138;28;20278;-65
2023/10/24 08:34:17;;;;;;;6.00;3.57;;;11.80;99.90;;;;;;5012661;28;20278;-64
2023/10/24 08:36:44;;;;;;;5.20;3.40;;;11.70;99.90;;;;;;5027768;28;20591;-64
2023/10/24 08:39:11;;;;;;;6.03;3.00;;;11.80;99.90;;;;;;5031391;28;20195;-64
2023/10/24 08:41:39;;;;;;;4.67;3.43;;;11.80;99.90;;;;;;5031843;28;20322;-65
2023/10/24 08:44:07;;;;;;;3.70;2.93;;;11.80;99.90;;;;;;5024902;28;20191;-64
2023/10/24 08:46:35;;;;;;;3.37;3.07;;;11.80;99.90;;;;;;5031394;28;20222;-64
2023/10/24 08:49:04;;;;;;;3.10;2.80;;;11.90;99.90;;;;;;5031257;28;20223;-64
2023/10/24 08:51:32;;;;;;;3.67;2.97;;;11.90;99.90;;;;;;5024845;28;20214;-65
2023/10/24 08:54:00;;;;;;;3.93;2.70;;;11.90;99.90;;;;;;5022525;28;20607;-65
2023/10/24 08:56:28;;;;;;;2.93;2.50;;;11.90;99.90;;;;;;5029763;28;20198;-65
2023/10/24 08:58:58;;;;;;;3.27;2.57;;;12.00;99.90;;;;;;5022448;28;20199;-65
2023/10/24 09:01:27;;;;;;;3.90;2.77;;;11.90;99.90;;;;;;5008016;28;20202;-65
2023/10/24 09:03:55;;;;;;;3.07;2.77;;;12.00;99.90;;;;;;5030613;28;21834;-64
2023/10/24 09:06:22;;;;;;;4.07;2.60;;;12.10;99.90;;;;;;5025521;28;20196;-65
2023/10/24 09:08:50;;;;;;;3.17;2.40;;;12.10;99.90;;;;;;5029850;28;20222;-65
2023/10/24 09:11:18;;;;;;;2.40;2.20;;;12.20;99.90;;;;;;5011160;28;20207;-64
2023/10/24 09:13:45;;;;;;;8.23;2.40;;;12.20;99.90;;;;;;5008280;28;20216;-64
2023/10/24 09:16:13;;;;;;;5.37;2.67;;;12.20;99.90;;;;;;5031449;28;20203;-65
2023/10/24 09:18:41;;;;;;;5.63;3.03;;;12.20;99.90;;;;;;5013143;28;20223;-65
2023/10/24 09:21:09;;;;;;;6.60;3.90;;;12.30;99.90;;;;;;5027261;28;20195;-64
2023/10/24 09:23:36;;;;;;;4.03;3.10;;;12.30;99.90;;;;;;5026614;28;20200;-64
2023/10/24 09:26:06;;;;;;;5.73;3.83;;;12.30;99.90;;;;;;5013895;28;20211;-65
2023/10/24 09:28:34;;;;;;;5.20;3.70;;;12.40;99.90;;;;;;5022441;28;20184;-65
2023/10/24 09:31:03;;;;;;;3.83;3.07;;;12.40;99.90;;;;;;5030567;28;20199;-65
2023/10/24 09:33:36;;;;;;;3.80;2.63;;;12.50;99.90;;;;;;5012492;28;20297;-64
2023/10/24 09:36:04;;;;;;;3.13;2.63;;;12.50;99.90;;;;;;5024277;28;20195;-65
2023/10/24 09:38:31;;;;;;;2.50;2.30;;;12.50;99.90;;;;;;5024221;28;20558;-65
2023/10/24 09:40:58;;;;;;;2.23;1.80;;;12.50;99.90;;;;;;5031190;28;20220;-65
2023/10/24 09:43:33;;;;;;;1.73;1.63;;;12.60;99.90;;;;;;5023776;28;20203;-65
2023/10/24 09:46:01;;;;;;;2.57;1.73;;;12.60;99.90;;;;;;5012891;28;20694;-65
2023/10/24 09:48:30;;;;;;;2.20;2.00;;;12.70;99.90;;;;;;5036831;28;20203;-65
2023/10/24 09:50:58;;;;;;;1.77;1.67;;;12.70;99.90;;;;;;5009616;28;20197;-65
2023/10/24 09:53:25;;;;;;;1.83;1.60;;;12.80;99.90;;;;;;5029875;28;20247;-65
2023/10/24 09:55:58;;;;;;;1.60;1.50;;;12.90;99.90;;;;;;5026932;28;20204;-65
2023/10/24 09:58:28;;;;;;;1.50;1.40;;;12.90;99.90;;;;;;5020550;28;20224;-65
2023/10/24 10:00:57;;;;;;;1.53;1.43;;;13.10;99.90;;;;;;5030496;28;20197;-64
2023/10/24 10:03:26;;;;;;;1.60;1.00;;;13.40;99.90;;;;;;5025605;28;20299;-63
2023/10/24 10:05:55;;;;;;;1.30;1.20;;;13.50;99.90;;;;;;5006635;28;20767;-65
2023/10/24 10:08:24;;;;;;;2.23;1.40;;;13.60;99.90;;;;;;5027361;28;20629;-65
2023/10/24 10:10:55;;;;;;;2.50;1.90;;;13.60;99.90;;;;;;5024007;28;20214;-64
2023/10/24 10:13:30;;;;;;;1.80;1.70;;;13.60;99.90;;;;;;5026428;28;20716;-65
2023/10/24 10:16:11;;;;;;;1.60;1.50;;;13.60;99.90;;;;;;5012994;28;20201;-64
2023/10/24 10:19:00;;;;;;;2.07;1.63;;;13.60;99.90;;;;;;5028670;28;20217;-65
2023/10/24 10:21:38;;;;;;;1.30;1.20;;;13.70;99.90;;;;;;5027856;28;20201;-65
2023/10/24 10:24:38;;;;;;;1.83;1.60;;;13.80;99.90;;;;;;5027632;28;20201;-65
2023/10/24 10:27:20;;;;;;;2.43;1.60;;;13.80;99.90;;;;;;5003568;28;20221;-64
2023/10/24 10:30:00;;;;;;;1.50;1.40;;;13.80;99.90;;;;;;5025323;28;20202;-64
2023/10/24 10:32:36;;;;;;;1.20;1.10;;;13.70;99.90;;;;;;5029892;28;20193;-64
2023/10/24 10:35:04;;;;;;;1.53;1.30;;;13.70;99.90;;;;;;5017536;28;20654;-65
2023/10/24 10:37:34;;;;;;;0.90;0.90;;;13.70;99.90;;;;;;5010402;28;20304;-64
2023/10/24 10:40:24;;;;;;;4.03;1.30;;;13.70;99.90;;;;;;5012274;28;20221;-64
2023/10/24 10:42:52;;;;;;;1.93;1.70;;;13.70;99.90;;;;;;5023199;28;20611;-64
2023/10/24 10:45:28;;;;;;;1.50;1.40;;;13.70;99.90;;;;;;5009062;28;20723;-65
2023/10/24 10:47:59;;;;;;;1.40;1.30;;;13.70;99.90;;;;;;5025208;28;20639;-64
2023/10/24 10:50:31;;;;;;;1.20;1.20;;;13.70;99.90;;;;;;5023592;28;20193;-64
2023/10/24 10:53:28;;;;;;;1.50;1.40;;;13.70;99.90;;;;;;5030186;28;20222;-65
2023/10/24 10:56:19;;;;;;;2.50;1.30;;;13.70;99.90;;;;;;5009536;28;20198;-65
2023/10/24 10:59:14;;;;;;;1.60;1.40;;;13.70;99.90;;;;;;5024996;28;20234;-64
2023/10/24 11:01:52;;;;;;;1.30;1.20;;;13.70;99.90;;;;;;5010243;28;20685;-64
2023/10/24 11:04:19;;;;;;;0.93;0.93;;;13.80;99.90;;;;;;5021323;28;20311;-65
2023/10/24 11:06:52;;;;;;;0.80;0.80;;;13.70;99.90;;;;;;5020909;28;20584;-64
2023/10/24 11:09:20;;;;;;;0.80;0.80;;;13.80;99.90;;;;;;5009043;28;20275;-65
2023/10/24 11:11:48;;;;;;;0.90;0.90;;;13.80;99.90;;;;;;5012109;28;20225;-65
2023/10/24 11:14:17;;;;;;;1.50;1.23;;;13.90;99.90;;;;;;5005415;28;20217;-65
2023/10/24 11:16:48;;;;;;;1.43;1.20;;;13.90;99.90;;;;;;5029687;28;20263;-65
2023/10/24 11:19:19;;;;;;;1.00;1.00;;;13.90;99.90;;;;;;5011301;28;20229;-64
2023/10/24 11:21:48;;;;;;;3.20;1.57;;;13.90;99.90;;;;;;5024851;28;20209;-65
2023/10/24 11:24:20;;;;;;;2.20;2.00;;;14.00;99.90;;;;;;5029373;28;20195;-64
2023/10/24 11:26:48;;;;;;;1.80;1.70;;;14.00;99.90;;;;;;5028556;28;20209;-65
2023/10/24 11:29:16;;;;;;;1.97;1.77;;;14.00;99.90;;;;;;5028648;28;20195;-65
2023/10/24 11:31:45;;;;;;;1.70;1.60;;;14.00;99.90;;;;;;5032329;28;20303;-65
2023/10/24 11:34:13;;;;;;;1.83;1.73;;;14.10;99.90;;;;;;5029642;28;20260;-65
2023/10/24 11:36:40;;;;;;;1.60;1.50;;;14.10;99.90;;;;;;5011986;28;20249;-63
2023/10/24 11:39:08;;;;;;;1.30;1.30;;;14.10;99.90;;;;;;5013979;28;20674;-64
2023/10/24 11:41:36;;;;;;;1.57;1.40;;;14.10;99.90;;;;;;5027228;28;20225;-64
2023/10/24 11:44:03;;;;;;;1.30;1.20;;;14.20;99.90;;;;;;5030871;28;20252;-64
2023/10/24 11:46:30;;;;;;;1.40;1.30;;;14.20;99.90;;;;;;5033010;28;20566;-64
2023/10/24 11:48:58;;;;;;;1.37;1.27;;;14.20;99.90;;;;;;5029079;28;20190;-64
2023/10/24 11:51:27;;;;;;;1.50;1.40;;;14.30;99.90;;;;;;5032229;28;20253;-64
2023/10/24 11:54:02;;;;;;;2.83;1.93;;;14.30;99.90;;;;;;5032185;28;20602;-64
2023/10/24 11:56:29;;;;;;;1.47;1.37;;;14.30;99.90;;;;;;5005715;28;20223;-64
2023/10/24 11:58:57;;;;;;;1.73;1.60;;;14.20;99.90;;;;;;5031486;28;20272;-64
2023/10/24 12:01:24;;;;;;;1.40;1.30;;;14.20;99.90;;;;;;5032814;28;20601;-64
2023/10/24 12:03:58;;;;;;;1.50;1.23;;;14.20;99.90;;;;;;5010805;28;20206;-64
2023/10/24 12:06:27;;;;;;;4.37;2.27;;;14.30;99.90;;;;;;5013778;28;20213;-65
2023/10/24 12:08:54;;;;;;;3.03;2.37;;;14.30;99.90;;;;;;5028421;28;20195;-65
2023/10/24 12:11:23;;;;;;;2.37;2.17;;;14.30;99.90;;;;;;5030833;28;20534;-65
2023/10/24 12:13:51;;;;;;;3.13;2.30;;;14.30;99.90;;;;;;5028600;28;20210;-65
2023/10/24 12:16:18;;;;;;;3.33;2.80;;;14.30;99.90;;;;;;5027723;28;20814;-65
2023/10/24 12:18:45;;;;;;;3.07;2.20;;;14.30;99.90;;;;;;5028964;28;20268;-65
2023/10/24 12:21:16;;;;;;;3.53;2.40;;;14.30;99.90;;;;;;5031520;28;20267;-65
2023/10/24 12:23:43;;;;;;;2.53;2.00;;;14.30;99.90;;;;;;5010229;28;20965;-64
2023/10/24 12:26:10;;;;;;;2.70;2.27;;;14.30;99.90;;;;;;5027479;28;20198;-64
2023/10/24 12:28:42;;;;;;;3.33;2.40;;;14.30;99.90;;;;;;5011381;28;20253;-64
2023/10/24 12:31:10;;;;;;;1.77;1.67;;;14.30;99.90;;;;;;5031582;28;20198;-64
2023/10/24 12:33:37;;;;;;;1.87;1.70;;;14.30;99.90;;;;;;5011837;28;20198;-64
2023/10/24 12:36:06;;;;;;;2.27;2.10;;;14.30;99.90;;;;;;5032300;28;20226;-64
2023/10/24 12:38:37;;;;;;;5.80;2.90;;;14.30;99.90;;;;;;5030009;28;20221;-65
2023/10/24 12:41:04;;;;;;;2.90;2.20;;;14.30;99.90;;;;;;5028603;28;20262;-65
2023/10/24 12:43:33;;;;;;;3.10;2.33;;;14.30;99.90;;;;;;5028394;28;20229;-65
2023/10/24 12:46:03;;;;;;;2.90;2.50;;;14.30;99.90;;;;;;5025899;28;20252;-64
2023/10/24 12:48:30;;;;;;;5.27;2.87;;;14.00;99.90;;;;;;5032638;28;20286;-64
2023/10/24 12:50:57;;;;;;;2.97;2.60;;;14.30;99.90;;;;;;5031195;28;20207;-64
2023/10/24 12:53:25;;;;;;;3.70;2.47;;;14.30;99.90;;;;;;4999280;28;20315;-64